createdAt,value
2023-12-11T00:02:09.051Z,97642.92
2023-12-11T00:04:35.836Z,97638.27
2023-12-11T00:07:02.588Z,97634.19
2023-12-11T00:09:29.438Z,97629.49
2023-12-11T00:11:58.423Z,97623.32
2023-12-11T00:14:25.474Z,97621.22
2023-12-11T00:16:52.656Z,97618.41
2023-12-11T00:19:19.809Z,97610.41
2023-12-11T00:21:46.783Z,97612.92
2023-12-11T00:24:13.527Z,97610.56
2023-12-11T00:26:40.741Z,97614.57
2023-12-11T00:29:07.504Z,97613.83
2023-12-11T00:31:34.263Z,97606.79
2023-12-11T00:34:01.098Z,97607.54
2023-12-11T00:36:28.424Z,97602.13
2023-12-11T00:38:55.278Z,97604.84
2023-12-11T00:41:23.266Z,97610.42
2023-12-11T00:43:52.526Z,97605.55
2023-12-11T00:46:25.465Z,97595.46
2023-12-11T00:48:52.407Z,97590.58
2023-12-11T00:51:20.595Z,97583.55
2023-12-11T00:53:49.479Z,97579.44
2023-12-11T00:56:16.793Z,97577.27
2023-12-11T00:58:44.257Z,97571.26
2023-12-11T01:01:11.548Z,97561.88
2023-12-11T01:03:39.521Z,97558.82
2023-12-11T01:06:06.653Z,97557.14
2023-12-11T01:08:35.002Z,97555.83
2023-12-11T01:11:01.754Z,97555.79
2023-12-11T01:13:28.584Z,97554.59
2023-12-11T01:15:55.388Z,97557.60
2023-12-11T01:18:22.262Z,97559.61
2023-12-11T01:20:49.058Z,97564.91
2023-12-11T01:23:15.789Z,97560.45
2023-12-11T01:25:42.554Z,97560.55
2023-12-11T01:28:09.515Z,97556.47
2023-12-11T01:30:37.039Z,97561.28
2023-12-11T01:33:04.968Z,97554.42
2023-12-11T01:35:35.057Z,97540.29
2023-12-11T01:38:02.386Z,97537.79
2023-12-11T01:40:29.147Z,97528.97
2023-12-11T01:43:06.849Z,97529.16
2023-12-11T01:45:38.306Z,97525.14
2023-12-11T01:48:05.811Z,97522.29
2023-12-11T01:50:33.141Z,97523.37
2023-12-11T01:53:00.579Z,97525.33
2023-12-11T01:55:27.483Z,97529.55
2023-12-11T01:57:54.572Z,97529.06
2023-12-11T02:00:21.916Z,97522.35
2023-12-11T02:02:48.602Z,97515.36
2023-12-11T02:05:15.362Z,97508.82
2023-12-11T02:07:42.420Z,97499.50
2023-12-11T02:10:10.087Z,97492.16
2023-12-11T02:12:36.987Z,97488.79
2023-12-11T02:15:04.168Z,97489.07
2023-12-11T02:17:31.400Z,97495.84
2023-12-11T02:19:58.633Z,97495.13
2023-12-11T02:22:26.042Z,97492.08
2023-12-11T02:25:02.737Z,97490.12
2023-12-11T02:27:31.028Z,97488.23
2023-12-11T02:29:58.034Z,97484.04
2023-12-11T02:32:24.726Z,97479.36
2023-12-11T02:34:51.968Z,97479.56
2023-12-11T02:37:18.775Z,97478.16
2023-12-11T02:39:47.038Z,97475.38
2023-12-11T02:42:13.898Z,97466.14
2023-12-11T02:44:41.063Z,97457.09
2023-12-11T02:47:07.788Z,97453.79
2023-12-11T02:49:34.986Z,97447.61
2023-12-11T02:52:02.040Z,97438.20
2023-12-11T02:54:28.778Z,97433.88
2023-12-11T02:56:55.711Z,97431.87
2023-12-11T02:59:22.673Z,97429.92
2023-12-11T03:01:49.578Z,97426.83
2023-12-11T03:04:17.069Z,97424.77
2023-12-11T03:06:43.880Z,97428.89
2023-12-11T03:09:10.622Z,97423.15
2023-12-11T03:11:37.529Z,97419.04
2023-12-11T03:14:04.610Z,97421.60
2023-12-11T03:16:31.624Z,97418.06
2023-12-11T03:18:58.951Z,97411.23
2023-12-11T03:21:25.727Z,97410.74
2023-12-11T03:23:52.752Z,97412.34
2023-12-11T03:26:19.549Z,97413.70
2023-12-11T03:28:46.280Z,97412.22
2023-12-11T03:31:13.041Z,97411.52
2023-12-11T03:33:40.026Z,97408.08
2023-12-11T03:36:07.310Z,97406.48
2023-12-11T03:38:33.995Z,97406.19
2023-12-11T03:41:00.835Z,97399.53
2023-12-11T03:43:27.891Z,97404.64
2023-12-11T03:45:57.382Z,97400.34
2023-12-11T03:48:24.522Z,97397.95
2023-12-11T03:50:51.370Z,97394.98
2023-12-11T03:53:18.117Z,97393.02
2023-12-11T03:55:44.842Z,97391.90
2023-12-11T03:58:11.696Z,97392.41
2023-12-11T04:00:38.531Z,97385.84
2023-12-11T04:03:05.676Z,97372.95
2023-12-11T04:05:32.892Z,97380.71
2023-12-11T04:07:59.656Z,97375.79
2023-12-11T04:10:26.745Z,97373.66
2023-12-11T04:12:53.815Z,97369.09
2023-12-11T04:15:20.599Z,97356.09
2023-12-11T04:17:48.002Z,97349.52
2023-12-11T04:20:15.015Z,97347.36
2023-12-11T04:22:41.924Z,97340.39
2023-12-11T04:25:09.623Z,97334.67
2023-12-11T04:27:36.424Z,97335.52
2023-12-11T04:30:03.263Z,97331.15
2023-12-11T04:32:30.503Z,97328.82
2023-12-11T04:34:57.428Z,97323.77
2023-12-11T04:37:24.213Z,97320.12
2023-12-11T04:39:51.664Z,97314.75
2023-12-11T04:42:18.610Z,97309.05
2023-12-11T04:44:45.344Z,97308.33
2023-12-11T04:47:12.217Z,97310.04
2023-12-11T04:49:39.232Z,97297.52
2023-12-11T04:52:06.300Z,97286.38
2023-12-11T04:54:33.285Z,97270.73
2023-12-11T04:57:00.016Z,97251.45
2023-12-11T04:59:26.697Z,97242.52
2023-12-11T05:01:54.048Z,97240.15
2023-12-11T05:04:21.114Z,97231.80
2023-12-11T05:06:47.893Z,97234.29
2023-12-11T05:09:14.746Z,97225.21
2023-12-11T05:11:41.532Z,97212.30
2023-12-11T05:14:08.266Z,97203.23
2023-12-11T05:16:38.110Z,97208.23
2023-12-11T05:19:05.239Z,97205.59
2023-12-11T05:21:31.988Z,97207.08
2023-12-11T05:23:58.795Z,97210.56
2023-12-11T05:26:25.619Z,97212.09
2023-12-11T05:28:52.316Z,97224.39
2023-12-11T05:31:19.263Z,97229.77
2023-12-11T05:33:46.224Z,97241.58
2023-12-11T05:36:13.105Z,97248.84
2023-12-11T05:38:39.850Z,97254.18
2023-12-11T05:41:07.189Z,97257.62
2023-12-11T05:43:34.070Z,97260.76
2023-12-11T05:46:01.108Z,97265.77
2023-12-11T05:48:27.949Z,97266.77
2023-12-11T05:50:54.720Z,97272.63
2023-12-11T05:53:21.514Z,97277.61
2023-12-11T05:55:48.254Z,97281.58
2023-12-11T05:58:15.130Z,97265.33
2023-12-11T06:00:42.578Z,97260.98
2023-12-11T06:03:09.491Z,97266.58
2023-12-11T06:05:36.381Z,97263.87
2023-12-11T06:08:03.828Z,97258.33
2023-12-11T06:10:30.990Z,97257.48
2023-12-11T06:12:57.817Z,97254.58
2023-12-11T06:15:24.926Z,97255.13
2023-12-11T06:17:51.731Z,97251.56
2023-12-11T06:20:18.655Z,97248.81
2023-12-11T06:22:48.500Z,97247.67
2023-12-11T06:25:15.232Z,97247.52
2023-12-11T06:27:42.066Z,97246.96
2023-12-11T06:30:09.648Z,97240.75
2023-12-11T06:32:36.467Z,97248.48
2023-12-11T06:35:03.875Z,97245.36
2023-12-11T06:37:31.323Z,97251.09
2023-12-11T06:39:58.457Z,97253.88
2023-12-11T06:42:25.220Z,97259.73
2023-12-11T06:44:52.414Z,97262.98
2023-12-11T06:47:19.137Z,97268.77
2023-12-11T06:49:48.307Z,97285.69
2023-12-11T06:52:17.195Z,97286.51
2023-12-11T06:54:44.296Z,97283.69
2023-12-11T06:57:11.068Z,97278.36
2023-12-11T06:59:37.842Z,97276.52
2023-12-11T07:02:05.586Z,97280.91
2023-12-11T07:04:32.895Z,97277.57
2023-12-11T07:07:00.139Z,97269.23
2023-12-11T07:09:30.956Z,97271.76
2023-12-11T07:11:57.838Z,97273.20
2023-12-11T07:14:25.874Z,97272.53
2023-12-11T07:16:53.181Z,97278.45
2023-12-11T07:19:23.189Z,97273.47
2023-12-11T07:21:50.460Z,97278.44
2023-12-11T07:24:17.222Z,97282.20
2023-12-11T07:26:43.952Z,97285.95
2023-12-11T07:29:11.081Z,97289.77
2023-12-11T07:31:38.034Z,97286.79
2023-12-11T07:34:05.149Z,97285.70
2023-12-11T07:36:32.843Z,97282.37
2023-12-11T07:38:59.560Z,97285.88
2023-12-11T07:41:26.273Z,97286.52
2023-12-11T07:43:53.706Z,97290.42
2023-12-11T07:46:22.027Z,97289.23
2023-12-11T07:48:49.313Z,97284.67
2023-12-11T07:51:20.370Z,97283.56
2023-12-11T07:53:47.984Z,97288.95
2023-12-11T07:56:22.519Z,97286.88
2023-12-11T07:58:49.707Z,97284.85
2023-12-11T08:01:16.909Z,97281.63
2023-12-11T08:03:44.903Z,97280.89
2023-12-11T08:06:12.653Z,97278.60
2023-12-11T08:08:45.423Z,97276.80
2023-12-11T08:11:17.773Z,97274.98
2023-12-11T08:13:45.296Z,97276.36
2023-12-11T08:16:13.045Z,97273.58
2023-12-11T08:18:42.852Z,97268.67
2023-12-11T08:21:09.754Z,97270.81
2023-12-11T08:23:36.657Z,97270.52
2023-12-11T08:26:03.790Z,97274.39
2023-12-11T08:28:30.575Z,97268.53
2023-12-11T08:30:57.957Z,97263.01
2023-12-11T08:33:25.144Z,97260.64
2023-12-11T08:35:52.176Z,97255.35
2023-12-11T08:38:20.142Z,97254.85
2023-12-11T08:40:47.117Z,97260.48
2023-12-11T08:43:14.463Z,97263.67
2023-12-11T08:45:41.910Z,97269.41
2023-12-11T08:48:09.588Z,97271.87
2023-12-11T08:50:37.043Z,97271.94
2023-12-11T08:53:05.032Z,97269.66
2023-12-11T08:55:32.841Z,97268.83
2023-12-11T08:57:59.626Z,97262.55
2023-12-11T09:00:26.682Z,97267.46
2023-12-11T09:02:53.772Z,97268.05
2023-12-11T09:05:21.199Z,97269.17
2023-12-11T09:07:48.414Z,97272.11
2023-12-11T09:10:15.852Z,97269.18
2023-12-11T09:12:43.036Z,97260.63
2023-12-11T09:15:11.439Z,97262.14
2023-12-11T09:17:38.659Z,97263.46
2023-12-11T09:20:07.784Z,97261.85
2023-12-11T09:22:34.835Z,97260.16
2023-12-11T09:25:01.985Z,97253.89
2023-12-11T09:27:29.296Z,97256.05
2023-12-11T09:29:56.620Z,97256.15
2023-12-11T09:32:24.099Z,97258.63
2023-12-11T09:34:51.354Z,97260.96
2023-12-11T09:37:23.046Z,97249.67
2023-12-11T09:39:50.545Z,97252.60
2023-12-11T09:42:18.386Z,97250.30
2023-12-11T09:44:46.925Z,97247.05
2023-12-11T09:47:33.578Z,97241.56
2023-12-11T09:50:01.643Z,97233.23
2023-12-11T09:52:29.209Z,97228.56
2023-12-11T09:54:56.691Z,97226.61
2023-12-11T09:57:26.688Z,97225.40
2023-12-11T09:59:54.049Z,97225.35
2023-12-11T10:02:21.146Z,97228.42
2023-12-11T10:05:06.424Z,97230.65
2023-12-11T10:07:36.453Z,97228.50
2023-12-11T10:10:21.346Z,97224.82
2023-12-11T10:12:48.631Z,97223.88
2023-12-11T10:15:26.495Z,97231.28
2023-12-11T10:18:09.659Z,97228.83
2023-12-11T10:20:39.939Z,97230.37
2023-12-11T10:23:19.031Z,97227.09
2023-12-11T10:25:49.261Z,97228.20
2023-12-11T10:28:19.450Z,97230.02
2023-12-11T10:30:53.499Z,97233.89
2023-12-11T10:33:22.231Z,97231.70
2023-12-11T10:35:50.036Z,97228.48
2023-12-11T10:38:25.520Z,97224.27
2023-12-11T10:40:53.901Z,97223.04
2023-12-11T10:43:21.332Z,97227.72
2023-12-11T10:45:51.652Z,97227.27
2023-12-11T10:48:22.447Z,97227.76
2023-12-11T10:50:50.448Z,97222.38
2023-12-11T10:53:18.419Z,97226.46
2023-12-11T10:55:48.295Z,97227.58
2023-12-11T10:58:16.340Z,97232.25
2023-12-11T11:00:46.055Z,97230.67
2023-12-11T11:03:14.714Z,97227.76
2023-12-11T11:05:42.793Z,97219.52
2023-12-11T11:08:37.278Z,97216.99
2023-12-11T11:11:24.226Z,97207.20
2023-12-11T11:14:19.167Z,97208.50
2023-12-11T11:16:56.753Z,97209.67
2023-12-11T11:19:25.982Z,97205.30
2023-12-11T11:22:05.658Z,97199.42
2023-12-11T11:24:34.529Z,97197.17
2023-12-11T11:27:06.010Z,97189.25
2023-12-11T11:29:46.190Z,97189.66
2023-12-11T11:32:13.781Z,97190.73
2023-12-11T11:34:43.914Z,97191.38
2023-12-11T11:37:22.539Z,97188.57
2023-12-11T11:40:06.477Z,97192.57
2023-12-11T11:42:35.439Z,97193.95
2023-12-11T11:45:12.822Z,97194.34
2023-12-11T11:47:40.454Z,97193.50
2023-12-11T11:50:11.407Z,97192.86
2023-12-11T11:52:42.800Z,97185.76
2023-12-11T11:55:27.961Z,97194.56
2023-12-11T11:57:58.593Z,97194.48
2023-12-11T12:00:27.474Z,97194.55
2023-12-11T12:03:02.632Z,97196.98
2023-12-11T12:05:29.671Z,97194.23
2023-12-11T12:07:57.453Z,97190.27
2023-12-11T12:10:25.601Z,97186.89
2023-12-11T12:13:00.311Z,97179.35
2023-12-11T12:15:28.712Z,97171.77
2023-12-11T12:18:07.454Z,97164.20
2023-12-11T12:20:34.460Z,97164.21
2023-12-11T12:23:02.941Z,97155.77
2023-12-11T12:25:31.830Z,97152.05
2023-12-11T12:28:14.911Z,97151.25
2023-12-11T12:30:42.206Z,97145.60
2023-12-11T12:33:11.498Z,97142.04
2023-12-11T12:35:39.644Z,97144.90
2023-12-11T12:38:08.979Z,97148.35
2023-12-11T12:40:36.367Z,97149.92
2023-12-11T12:43:14.823Z,97141.05
2023-12-11T12:45:43.454Z,97144.77
2023-12-11T12:48:11.194Z,97144.45
2023-12-11T12:50:39.077Z,97147.67
2023-12-11T12:53:12.341Z,97146.67
2023-12-11T12:55:44.910Z,97147.18
2023-12-11T12:58:15.565Z,97145.22
2023-12-11T13:00:44.469Z,97144.80
2023-12-11T13:03:11.801Z,97139.25
2023-12-11T13:05:45.717Z,97134.63
2023-12-11T13:08:15.988Z,97126.69
2023-12-11T13:10:58.528Z,97123.17
2023-12-11T13:13:28.279Z,97133.77
2023-12-11T13:15:56.959Z,97130.44
2023-12-11T13:18:24.071Z,97133.42
2023-12-11T13:20:51.850Z,97131.40
2023-12-11T13:23:19.979Z,97120.86
2023-12-11T13:25:47.112Z,97112.84
2023-12-11T13:28:14.077Z,97108.19
2023-12-11T13:30:41.168Z,97118.12
2023-12-11T13:33:08.224Z,97122.93
2023-12-11T13:35:35.933Z,97114.87
2023-12-11T13:38:02.951Z,97113.36
2023-12-11T13:40:30.040Z,97112.63
2023-12-11T13:42:57.223Z,97107.91
2023-12-11T13:45:24.259Z,97105.61
2023-12-11T13:47:51.354Z,97106.66
2023-12-11T13:50:18.559Z,97111.57
2023-12-11T13:52:45.654Z,97114.19
2023-12-11T13:55:12.837Z,97117.92
2023-12-11T13:57:39.982Z,97118.72
2023-12-11T14:00:07.660Z,97119.48
2023-12-11T14:02:59.584Z,97124.08
2023-12-11T14:05:22.201Z,97130.64
2023-12-11T14:07:50.522Z,97125.80
2023-12-11T14:10:17.931Z,97123.66
2023-12-11T14:12:45.078Z,97118.73
2023-12-11T14:15:13.105Z,97119.30
2023-12-11T14:17:40.109Z,97119.46
2023-12-11T14:20:07.879Z,97116.38
2023-12-11T14:22:36.229Z,97112.10
2023-12-11T14:25:04.700Z,97108.88
2023-12-11T14:27:32.129Z,97111.05
2023-12-11T14:29:59.654Z,97115.14
2023-12-11T14:32:27.080Z,97114.38
2023-12-11T14:34:54.170Z,97123.10
2023-12-11T14:37:21.733Z,97117.34
2023-12-11T14:39:49.922Z,97119.51
2023-12-11T14:42:16.743Z,97117.90
2023-12-11T14:44:43.880Z,97113.71
2023-12-11T14:47:10.829Z,97113.50
2023-12-11T14:49:37.877Z,97118.48
2023-12-11T14:52:05.379Z,97121.27
2023-12-11T14:54:32.374Z,97121.45
2023-12-11T14:56:59.358Z,97127.46
2023-12-11T14:59:26.549Z,97124.91
2023-12-11T15:01:53.656Z,97128.98
2023-12-11T15:04:20.656Z,97126.04
2023-12-11T15:06:47.958Z,97117.92
2023-12-11T15:09:16.771Z,97122.02
2023-12-11T15:11:44.090Z,97121.11
2023-12-11T15:14:14.030Z,97127.34
2023-12-11T15:16:42.630Z,97133.99
2023-12-11T15:19:10.321Z,97139.81
2023-12-11T15:21:38.206Z,97135.38
2023-12-11T15:24:06.988Z,97138.27
2023-12-11T15:26:34.181Z,97135.19
2023-12-11T15:29:05.879Z,97136.90
2023-12-11T15:31:33.916Z,97139.58
2023-12-11T15:34:01.981Z,97143.24
2023-12-11T15:36:28.960Z,97148.08
2023-12-11T15:38:55.903Z,97150.75
2023-12-11T15:41:23.011Z,97141.58
2023-12-11T15:43:50.074Z,97133.80
2023-12-11T15:46:17.219Z,97135.70
2023-12-11T15:48:45.685Z,97133.14
2023-12-11T15:51:17.061Z,97130.08
2023-12-11T15:53:47.815Z,97130.14
2023-12-11T15:56:17.495Z,97122.75
2023-12-11T15:58:44.864Z,97123.42
2023-12-11T16:01:12.712Z,97122.08
2023-12-11T16:03:40.295Z,97122.52
2023-12-11T16:06:08.413Z,97119.16
2023-12-11T16:08:35.568Z,97115.24
2023-12-11T16:11:02.405Z,97115.02
2023-12-11T16:13:29.508Z,97111.30
2023-12-11T16:15:57.658Z,97109.05
2023-12-11T16:18:25.175Z,97106.36
2023-12-11T16:20:52.301Z,97102.02
2023-12-11T16:23:19.555Z,97095.94
2023-12-11T16:25:55.616Z,97087.58
2023-12-11T16:28:27.339Z,97080.59
2023-12-11T16:30:55.033Z,97085.58
2023-12-11T16:33:22.159Z,97091.31
2023-12-11T16:35:49.216Z,97094.77
2023-12-11T16:38:16.475Z,97095.78
2023-12-11T16:40:43.521Z,97095.06
2023-12-11T16:43:10.733Z,97095.21
2023-12-11T16:45:38.099Z,97095.30
2023-12-11T16:48:05.457Z,97095.93
2023-12-11T16:50:32.637Z,97091.90
2023-12-11T16:53:00.538Z,97090.90
2023-12-11T16:55:27.713Z,97085.54
2023-12-11T16:57:54.661Z,97077.41
2023-12-11T17:11:44.953Z,97077.44
2023-12-11T17:14:12.088Z,97073.80
2023-12-11T17:16:39.104Z,97071.41
2023-12-11T17:19:06.820Z,97066.52
2023-12-11T17:21:34.472Z,97061.35
2023-12-11T17:24:01.759Z,97058.08
2023-12-11T17:26:28.895Z,97059.11
2023-12-11T17:28:56.234Z,97061.67
2023-12-11T17:31:23.119Z,97067.84
2023-12-11T17:33:52.725Z,97066.39
2023-12-11T17:36:19.754Z,97067.29
2023-12-11T17:38:46.715Z,97068.52
2023-12-11T17:41:13.746Z,97061.89
2023-12-11T17:43:40.500Z,97062.48
2023-12-11T17:46:07.950Z,97058.20
2023-12-11T17:48:35.202Z,97064.81
2023-12-11T17:51:06.877Z,97071.35
2023-12-11T17:53:34.827Z,97066.67
2023-12-11T17:56:03.491Z,97063.88
2023-12-11T17:58:30.328Z,97063.52
2023-12-11T18:00:57.473Z,97057.32
2023-12-11T18:03:25.519Z,97055.95
2023-12-11T18:05:52.350Z,97046.75
2023-12-11T18:08:19.148Z,97040.23
2023-12-11T18:10:46.564Z,97033.94
2023-12-11T18:13:13.320Z,97025.06
2023-12-11T18:15:40.254Z,97025.21
2023-12-11T18:18:07.271Z,97030.65
2023-12-11T18:20:34.081Z,97029.94
2023-12-11T18:23:01.906Z,97032.29
2023-12-11T18:25:29.029Z,97027.35
2023-12-11T18:27:55.939Z,97030.81
2023-12-11T18:30:22.793Z,97033.34
2023-12-11T18:32:50.013Z,97029.86
2023-12-11T18:35:17.666Z,97027.60
2023-12-11T18:37:44.494Z,97025.92
2023-12-11T18:40:12.774Z,97030.20
2023-12-11T18:42:39.832Z,97028.48
2023-12-11T18:45:07.608Z,97025.05
2023-12-11T18:47:35.031Z,97019.55
2023-12-11T18:50:02.566Z,97023.02
2023-12-11T18:52:29.487Z,97024.15
2023-12-11T18:54:56.645Z,97025.59
2023-12-11T18:57:23.445Z,97022.38
2023-12-11T18:59:50.213Z,97024.66
2023-12-11T19:02:17.429Z,97016.61
2023-12-11T19:04:44.771Z,97018.48
2023-12-11T19:07:11.846Z,97011.61
2023-12-11T19:09:39.156Z,97015.38
2023-12-11T19:12:06.513Z,97015.45
2023-12-11T19:14:33.565Z,97018.84
2023-12-11T19:17:00.686Z,97020.55
2023-12-11T19:19:27.976Z,97020.87
2023-12-11T19:21:55.118Z,97008.30
2023-12-11T19:24:22.629Z,97007.67
2023-12-11T19:26:49.537Z,97007.05
2023-12-11T19:29:17.884Z,97010.71
2023-12-11T19:31:45.806Z,97012.59
2023-12-11T19:34:13.007Z,97016.73
2023-12-11T19:36:43.403Z,97018.09
2023-12-11T19:39:13.558Z,97020.34
2023-12-11T19:41:43.253Z,97010.60
2023-12-11T19:44:13.562Z,97011.29
2023-12-11T19:46:45.198Z,97007.19
2023-12-11T19:49:12.686Z,97013.23
2023-12-11T19:51:39.982Z,97015.80
2023-12-11T19:54:08.750Z,97011.52
2023-12-11T19:56:35.851Z,97009.73
2023-12-11T19:59:04.213Z,97014.76
2023-12-11T20:01:35.131Z,97008.23
2023-12-11T20:04:02.529Z,97004.23
2023-12-11T20:06:29.779Z,96998.99
2023-12-11T20:08:57.179Z,97001.25
2023-12-11T20:11:23.913Z,96998.29
2023-12-11T20:13:51.131Z,97001.05
2023-12-11T20:16:19.010Z,96997.34
2023-12-11T20:18:46.858Z,96998.15
2023-12-11T20:21:14.192Z,96995.38
2023-12-11T20:23:41.955Z,97001.63
2023-12-11T20:26:12.903Z,97002.52
2023-12-11T20:28:39.864Z,97003.19
2023-12-11T20:31:19.851Z,97001.52
2023-12-11T20:33:47.793Z,97003.65
2023-12-11T20:36:16.410Z,97001.36
2023-12-11T20:38:44.794Z,97007.07
2023-12-11T20:41:25.161Z,97014.77
2023-12-11T20:43:53.690Z,97012.55
2023-12-11T20:46:25.219Z,97019.52
2023-12-11T20:48:54.100Z,97025.30
2023-12-11T20:51:21.869Z,97023.48
2023-12-11T20:53:49.371Z,97023.14
2023-12-11T20:56:24.493Z,97031.05
2023-12-11T20:58:52.447Z,97032.05
2023-12-11T21:01:33.586Z,97034.59
2023-12-11T21:04:02.617Z,97036.20
2023-12-11T21:06:30.871Z,97034.11
2023-12-11T21:08:58.792Z,97034.44
2023-12-11T21:11:26.381Z,97034.59
2023-12-11T21:13:54.723Z,97032.50
2023-12-11T21:16:22.143Z,97037.91
2023-12-11T21:18:50.940Z,97030.65
2023-12-11T21:21:19.902Z,97035.20
2023-12-11T21:23:48.451Z,97034.22
2023-12-11T21:26:20.053Z,97038.17
2023-12-11T21:28:48.071Z,97041.48
2023-12-11T21:31:26.023Z,97038.15
2023-12-11T21:33:54.102Z,97044.64
2023-12-11T21:36:22.769Z,97041.95
2023-12-11T21:38:51.019Z,97046.52
2023-12-11T21:41:18.770Z,97050.55
2023-12-11T21:43:47.914Z,97059.30
2023-12-11T21:46:15.258Z,97057.42
2023-12-11T21:48:45.770Z,97061.90
2023-12-11T21:51:20.565Z,97058.70
2023-12-11T21:53:48.842Z,97060.63
2023-12-11T21:56:15.916Z,97062.58
2023-12-11T21:58:43.894Z,97059.51
2023-12-11T22:01:11.294Z,97063.52
2023-12-11T22:03:38.843Z,97069.61
2023-12-11T22:06:06.343Z,97069.38
2023-12-11T22:08:33.682Z,97069.90
2023-12-11T22:11:00.938Z,97067.98
2023-12-11T22:13:28.453Z,97070.40
2023-12-11T22:15:55.496Z,97069.33
2023-12-11T22:18:22.611Z,97072.46
2023-12-11T22:20:49.957Z,97080.23
2023-12-11T22:23:16.952Z,97077.19
2023-12-11T22:25:43.965Z,97074.64
2023-12-11T22:28:11.204Z,97080.20
2023-12-11T22:30:38.322Z,97078.95
2023-12-11T22:33:05.467Z,97084.50
2023-12-11T22:35:32.680Z,97085.57
2023-12-11T22:37:59.684Z,97084.54
2023-12-11T22:40:26.752Z,97087.09
2023-12-11T22:42:54.043Z,97087.09
2023-12-11T22:45:22.695Z,97084.75
2023-12-11T22:47:50.452Z,97090.14
2023-12-11T22:50:17.433Z,97089.42
2023-12-11T22:52:44.418Z,97089.40
2023-12-11T22:55:11.412Z,97087.97
2023-12-11T22:57:40.194Z,97087.15
2023-12-11T23:00:12.212Z,97089.36
2023-12-11T23:02:39.343Z,97086.88
2023-12-11T23:05:06.806Z,97093.33
2023-12-11T23:07:34.190Z,97098.17
2023-12-11T23:10:01.395Z,97104.73
2023-12-11T23:12:28.218Z,97105.27
2023-12-11T23:14:55.021Z,97113.77
2023-12-11T23:17:22.018Z,97114.89
2023-12-11T23:19:49.379Z,97112.27
2023-12-11T23:22:16.482Z,97110.70
2023-12-11T23:24:43.328Z,97116.03
2023-12-11T23:27:10.130Z,97110.41
2023-12-11T23:29:36.886Z,97116.69
2023-12-11T23:32:04.138Z,97114.50
2023-12-11T23:34:31.061Z,97112.77
2023-12-11T23:36:58.719Z,97116.14
2023-12-11T23:39:25.564Z,97120.13
2023-12-11T23:41:52.518Z,97119.38
2023-12-11T23:44:21.469Z,97123.62
2023-12-11T23:46:49.726Z,97127.52
2023-12-11T23:49:16.964Z,97129.80
2023-12-11T23:51:43.855Z,97127.55
2023-12-11T23:54:10.583Z,97122.89
2023-12-11T23:56:37.621Z,97123.55
2023-12-11T23:59:09.860Z,97114.97
